Terminal Aerodrome Forecast
Issued by NWS Nashville, TN

Home | Current Version | Previous Version | Text Only | Print | Product List | Glossary On
Versions: 1 2 3 4 5 6 7 8 9 10 11 12 13 14 15 16 17 18 19 20
000
FTUS44 KOHX 280627 AAA
TAFCSV
TAF AMD
KCSV 280627Z 2806/2906 00000KT 5SM BR SCT100 BKN200
      TEMPO 2808/2812 2SM BR
     FM281400 24004KT P6SM SCT100
     FM281800 31006KT P6SM VCTS SCT050CB BKN100
     FM290100 00000KT P6SM SCT050 BKN100=

USA.gov is the U.S. government's official web portal to all federal, state and local government web resources and services.